PILOTS ONLINE: 573    ATC ONLINE: 108

Location

IATA JTR
City Santorini Island
Country  Greece
Latitude 36° 23' 57" N
Longitude 25° 28' 45" E
Elevation 127 ft
Type Medium Airport

Weather

METAR
2014/07/11 19:50
LGSR 111950Z 24020G30KT 9999 FEW020 25/20 Q1007 NOSIG
TAF
2013/11/22 09:36
TAF TAF LGSR 220800Z 2209/2221 27012KT 9999 SCT025 PROB40 
      TEMPO 2209/2216 7000 RA SCT020 PROB30 
      TEMPO 2209/2211 5000 SHRA FEW018CB BKN020

Runways

16L/34R 6972 ft / 98 ft
16R/34L 0 ft / 0 ft

Outbound flights

IMP501  LSZH - Zurich, Switzerland
Stamatis Katsafados
IMP707  LSZH - Zurich, Switzerland
Vasilios Nikolaou
BAW653  EGLL - London, United Kingdom
Daniel Cushing

Inbound flights


Spotted incorrect airport information? Please login with your VATSIM ID.